KCDN/CDN METAR and TAF weather

Enter ICAO airport designator
Station Type Date Time Source
KCDN METAR 2021/07/24 20:15 UTC NOAA

KCDN 242015Z AUTO 11006KT 10SM BKN050 OVC070 30/20 A3007 RMK AO2


Station Type Date Time Source
KCDN Decoded METAR 2021/07/24 20:15 UTC NOAA

Station name not available
Jul 24, 2021 - 04:15 PM EDT / 2021.07.24 2015 UTC
Wind: from the ESE (110 degrees) at 7 MPH (6 KT):0
Visibility: 10 mile(s):0
Sky conditions: overcast
Temperature: 86 F (30 C)
Dew Point: 68 F (20 C)
Relative Humidity: 55%
Pressure (altimeter): 30.07 in. Hg (1018 hPa)
ob: KCDN 242015Z AUTO 11006KT 10SM BKN050 OVC070 30/20 A3007 RMK AO2
cycle: 20

Station Type Date Time Source
KCDN TAF UTC NOAA

Error!

Example: see airport list